Time;durP1;ratioP1;P1;durP2;ratioP2;P2;SDS_P1;SDS_P2;PMS_P1;PMS_P2;Temp;Humidity;BMP_temperature;BMP_pressure;BME280_temperature;BME280_humidity;BME280_pressure;Samples;Min_cycle;Max_cycle;Signal;HPM_P1;HPM_P2
2021/12/20 00:00:10;;;;;;;30.85;19.60;;;;;;;;;;6225617;28;20110;-65
2021/12/20 00:03:12;;;;;;;29.08;19.30;;;;;;;;;;6216042;28;20195;-65
2021/12/20 00:06:13;;;;;;;32.35;20.42;;;;;;;;;;6213943;28;20103;-65
2021/12/20 00:09:16;;;;;;;29.75;19.98;;;;;;;;;;6222915;28;20108;-65
2021/12/20 00:12:18;;;;;;;30.20;19.17;;;;;;;;;;6216871;28;20050;-65
2021/12/20 00:15:20;;;;;;;28.38;19.02;;;;;;;;;;6216080;28;20095;-65
2021/12/20 00:18:21;;;;;;;27.92;18.17;;;;;;;;;;6219459;28;20496;-65
2021/12/20 00:21:23;;;;;;;26.83;18.20;;;;;;;;;;6219088;28;20091;-64
2021/12/20 00:24:26;;;;;;;26.25;17.48;;;;;;;;;;6228503;28;20053;-65
2021/12/20 00:27:27;;;;;;;28.20;17.77;;;;;;;;;;6214379;28;20096;-65
2021/12/20 00:30:29;;;;;;;31.80;18.70;;;;;;;;;;6215354;28;20251;-65
2021/12/20 00:33:33;;;;;;;30.50;18.98;;;;;;;;;;6218709;28;20050;-65
2021/12/20 00:36:35;;;;;;;32.65;19.65;;;;;;;;;;6228778;28;20057;-65
2021/12/20 00:42:59;;;;;;;38.47;23.42;;;;;;;;;;6215887;28;20045;-65
2021/12/20 00:46:00;;;;;;;37.33;23.25;;;;;;;;;;6211338;28;20075;-65
2021/12/20 00:49:02;;;;;;;40.35;24.27;;;;;;;;;;6222786;28;20129;-65
2021/12/20 00:52:04;;;;;;;38.35;23.58;;;;;;;;;;6218624;28;20042;-65
2021/12/20 00:55:08;;;;;;;38.95;24.20;;;;;;;;;;6223329;28;20509;-65
2021/12/20 00:58:10;;;;;;;42.85;23.88;;;;;;;;;;6229205;28;20159;-65
2021/12/20 01:01:11;;;;;;;41.58;24.40;;;;;;;;;;6208339;28;20180;-65
2021/12/20 01:04:13;;;;;;;41.90;24.40;;;;;;;;;;6224142;28;20050;-65
2021/12/20 01:07:15;;;;;;;40.60;24.65;;;;;;;;;;6212860;28;20169;-65
2021/12/20 01:10:18;;;;;;;39.90;23.20;;;;;;;;;;6226546;28;20124;-65
2021/12/20 01:13:22;;;;;;;41.22;24.17;;;;;;;;;;6214102;28;21672;-65
2021/12/20 01:16:31;;;;;;;41.10;24.48;;;;;;;;;;6212280;28;20061;-65
2021/12/20 01:19:32;;;;;;;35.85;22.58;;;;;;;;;;6230363;28;20052;-65
2021/12/20 01:22:34;;;;;;;39.60;24.30;;;;;;;;;;6225155;28;20130;-65
2021/12/20 01:25:37;;;;;;;43.10;24.02;;;;;;;;;;6219393;28;20131;-65
2021/12/20 01:28:42;;;;;;;40.88;23.27;;;;;;;;;;6231492;28;20123;-65
2021/12/20 01:31:44;;;;;;;38.97;22.67;;;;;;;;;;6214680;28;20470;-64
2021/12/20 01:34:45;;;;;;;39.28;22.80;;;;;;;;;;6230724;28;20050;-64
2021/12/20 01:37:47;;;;;;;41.42;23.75;;;;;;;;;;6223513;28;20184;-65
2021/12/20 01:40:50;;;;;;;42.55;25.23;;;;;;;;;;6224885;28;20929;-65
2021/12/20 01:43:53;;;;;;;38.85;22.98;;;;;;;;;;6231530;28;20045;-65
2021/12/20 01:46:55;;;;;;;40.40;24.08;;;;;;;;;;6216184;28;20056;-65
2021/12/20 01:50:01;;;;;;;36.65;23.23;;;;;;;;;;6237416;28;20095;-65
2021/12/20 01:53:03;;;;;;;44.15;25.15;;;;;;;;;;6210433;28;20401;-65
2021/12/20 01:56:07;;;;;;;41.97;24.55;;;;;;;;;;6221185;28;20053;-65
2021/12/20 01:59:10;;;;;;;45.88;26.35;;;;;;;;;;6231746;28;20128;-65
2021/12/20 02:02:12;;;;;;;42.63;26.57;;;;;;;;;;6207683;28;20192;-65
2021/12/20 02:05:20;;;;;;;46.97;27.67;;;;;;;;;;6219223;28;20062;-65
2021/12/20 02:08:24;;;;;;;44.63;25.88;;;;;;;;;;6227646;28;20252;-66
2021/12/20 02:11:28;;;;;;;43.50;26.23;;;;;;;;;;6215616;28;20048;-65
2021/12/20 02:14:29;;;;;;;40.30;25.98;;;;;;;;;;6227580;28;20049;-65
2021/12/20 02:17:31;;;;;;;48.17;27.05;;;;;;;;;;6211435;28;20045;-65
2021/12/20 02:20:35;;;;;;;46.55;27.05;;;;;;;;;;6215740;28;20107;-65
2021/12/20 02:23:36;;;;;;;48.70;27.35;;;;;;;;;;6224504;28;20556;-65
2021/12/20 02:26:38;;;;;;;49.63;28.33;;;;;;;;;;6216366;28;20046;-65
2021/12/20 02:29:43;;;;;;;47.80;28.45;;;;;;;;;;6224698;28;20231;-65
2021/12/20 02:39:25;;;;;;;44.22;25.48;;;;;;;;;;6228202;28;20050;-65
2021/12/20 02:42:32;;;;;;;42.65;24.50;;;;;;;;;;6216226;28;20065;-65
2021/12/20 02:45:37;;;;;;;42.10;23.77;;;;;;;;;;6208339;28;20046;-65
2021/12/20 02:48:38;;;;;;;36.90;21.42;;;;;;;;;;6232939;28;20389;-66
2021/12/20 02:51:42;;;;;;;42.53;24.52;;;;;;;;;;6220573;28;20136;-65
2021/12/20 02:54:44;;;;;;;39.05;22.60;;;;;;;;;;6226504;28;20104;-65
2021/12/20 02:57:46;;;;;;;39.53;22.13;;;;;;;;;;6221761;28;20129;-65
2021/12/20 03:00:48;;;;;;;41.00;23.60;;;;;;;;;;6223204;28;20137;-65
2021/12/20 03:03:51;;;;;;;42.25;23.95;;;;;;;;;;6232720;28;20048;-65
2021/12/20 03:06:56;;;;;;;41.80;23.73;;;;;;;;;;6222236;28;20128;-65
2021/12/20 03:10:02;;;;;;;40.97;25.13;;;;;;;;;;6236816;28;20061;-65
2021/12/20 03:13:04;;;;;;;42.55;25.17;;;;;;;;;;6222492;28;20046;-65
2021/12/20 03:16:06;;;;;;;40.10;25.00;;;;;;;;;;6215543;28;20402;-65
2021/12/20 03:19:07;;;;;;;40.60;24.45;;;;;;;;;;6220039;28;20053;-65
2021/12/20 03:22:11;;;;;;;43.15;24.48;;;;;;;;;;6218463;28;20410;-65
2021/12/20 03:25:13;;;;;;;44.70;24.97;;;;;;;;;;6222723;28;20067;-65
2021/12/20 03:28:14;;;;;;;40.70;24.35;;;;;;;;;;6223957;28;20053;-65
2021/12/20 03:31:16;;;;;;;41.03;23.63;;;;;;;;;;6216921;28;20045;-65
2021/12/20 03:34:18;;;;;;;38.10;22.77;;;;;;;;;;6224166;28;20136;-65
2021/12/20 03:37:21;;;;;;;37.63;23.08;;;;;;;;;;6219898;28;20537;-65
2021/12/20 03:40:22;;;;;;;40.72;23.08;;;;;;;;;;6216869;28;20053;-65
2021/12/20 03:43:31;;;;;;;41.72;23.73;;;;;;;;;;6227238;28;20056;-65
2021/12/20 03:46:32;;;;;;;38.78;21.77;;;;;;;;;;6216774;28;20708;-65
2021/12/20 03:49:34;;;;;;;39.80;21.90;;;;;;;;;;6222169;28;20050;-65
2021/12/20 03:52:38;;;;;;;36.05;20.80;;;;;;;;;;6212708;28;20050;-65
2021/12/20 03:55:39;;;;;;;;;;;;;;;;;;6221576;28;20061;-65
2021/12/20 03:58:41;;;;;;;37.33;22.13;;;;;;;;;;6230520;28;19924;-65
2021/12/20 04:01:43;;;;;;;32.60;19.48;;;;;;;;;;6211693;28;20074;-65
2021/12/20 04:04:44;;;;;;;32.30;19.73;;;;;;;;;;6222943;28;20073;-65
2021/12/20 04:07:47;;;;;;;32.50;18.60;;;;;;;;;;6220370;28;20052;-65
2021/12/20 04:10:49;;;;;;;34.42;19.42;;;;;;;;;;6214376;28;20806;-65
2021/12/20 04:13:51;;;;;;;32.78;19.15;;;;;;;;;;6226271;28;20179;-66
2021/12/20 04:16:52;;;;;;;32.33;18.63;;;;;;;;;;6203850;28;20113;-65
2021/12/20 04:19:54;;;;;;;31.08;18.35;;;;;;;;;;6230085;28;20859;-65
2021/12/20 04:22:57;;;;;;;31.50;17.83;;;;;;;;;;6221379;28;20037;-65
2021/12/20 04:25:58;;;;;;;30.90;17.00;;;;;;;;;;6229339;28;20042;-65
2021/12/20 04:29:00;;;;;;;28.23;17.55;;;;;;;;;;6228567;28;20175;-65
2021/12/20 04:32:02;;;;;;;26.35;16.98;;;;;;;;;;6212745;28;20045;-65
2021/12/20 04:35:03;;;;;;;29.80;16.67;;;;;;;;;;6220671;28;20034;-65
2021/12/20 04:38:08;;;;;;;25.42;15.48;;;;;;;;;;6214712;28;20054;-65
2021/12/20 04:41:10;;;;;;;24.65;15.05;;;;;;;;;;6212598;28;20449;-65
2021/12/20 04:44:11;;;;;;;25.60;15.30;;;;;;;;;;6228321;28;20148;-65
2021/12/20 04:47:13;;;;;;;29.27;15.85;;;;;;;;;;6211672;28;20042;-65
2021/12/20 04:50:15;;;;;;;26.10;14.93;;;;;;;;;;6213705;28;20263;-65
2021/12/20 04:53:18;;;;;;;28.95;15.77;;;;;;;;;;6222366;28;20050;-65
2021/12/20 04:56:20;;;;;;;28.27;16.27;;;;;;;;;;6218901;28;20046;-65
2021/12/20 04:59:21;;;;;;;26.70;15.60;;;;;;;;;;6225198;28;20136;-65
2021/12/20 05:02:23;;;;;;;24.17;14.13;;;;;;;;;;6208884;28;20107;-65
2021/12/20 05:05:25;;;;;;;27.88;14.60;;;;;;;;;;6222882;28;20223;-65
2021/12/20 05:08:34;;;;;;;24.90;14.95;;;;;;;;;;6231173;28;20363;-65
2021/12/20 05:11:35;;;;;;;26.40;15.73;;;;;;;;;;6214998;28;20054;-65
2021/12/20 05:14:37;;;;;;;24.65;15.20;;;;;;;;;;6224495;28;20179;-65
2021/12/20 05:17:38;;;;;;;24.92;14.20;;;;;;;;;;6212716;28;20497;-65
2021/12/20 05:20:40;;;;;;;28.67;15.68;;;;;;;;;;6211248;28;20141;-65
2021/12/20 05:23:43;;;;;;;27.20;14.38;;;;;;;;;;6225251;28;20172;-65
2021/12/20 05:26:44;;;;;;;28.98;15.32;;;;;;;;;;6216647;28;20049;-65
2021/12/20 05:29:47;;;;;;;25.40;14.50;;;;;;;;;;6227309;28;20164;-65
2021/12/20 05:32:49;;;;;;;31.83;15.80;;;;;;;;;;6206446;28;20120;-65
2021/12/20 05:35:51;;;;;;;29.65;15.65;;;;;;;;;;6220501;28;20118;-65
2021/12/20 05:38:54;;;;;;;26.00;15.35;;;;;;;;;;6226175;28;20227;-65
2021/12/20 05:41:55;;;;;;;31.27;15.68;;;;;;;;;;6215937;28;20077;-65
2021/12/20 05:44:57;;;;;;;28.80;16.05;;;;;;;;;;6224771;28;20490;-65
2021/12/20 05:47:59;;;;;;;26.35;16.00;;;;;;;;;;6210421;28;20159;-65
2021/12/20 05:51:00;;;;;;;28.75;14.93;;;;;;;;;;6210449;28;20045;-65
2021/12/20 05:54:04;;;;;;;26.08;15.00;;;;;;;;;;6222862;28;20131;-65
2021/12/20 05:57:06;;;;;;;27.13;16.10;;;;;;;;;;6216910;28;20049;-65
2021/12/20 06:00:12;;;;;;;26.73;15.75;;;;;;;;;;6223922;28;20045;-65
2021/12/20 06:03:13;;;;;;;32.30;15.30;;;;;;;;;;6213703;28;20472;-65
2021/12/20 06:06:15;;;;;;;26.08;14.93;;;;;;;;;;6222065;28;20041;-65
2021/12/20 06:09:18;;;;;;;26.83;15.30;;;;;;;;;;6230675;28;20894;-65
2021/12/20 06:12:20;;;;;;;25.30;15.10;;;;;;;;;;6216474;28;20087;-66
2021/12/20 06:15:21;;;;;;;23.30;14.50;;;;;;;;;;6218982;28;20128;-65
2021/12/20 06:18:23;;;;;;;24.17;13.20;;;;;;;;;;6220576;28;20049;-66
2021/12/20 06:21:24;;;;;;;22.90;14.02;;;;;;;;;;6222461;28;20038;-65
2021/12/20 06:24:27;;;;;;;23.70;14.98;;;;;;;;;;6229046;28;20050;-65
2021/12/20 06:27:29;;;;;;;22.58;14.07;;;;;;;;;;6220589;28;20063;-66
2021/12/20 06:30:30;;;;;;;20.90;12.75;;;;;;;;;;6231823;28;20069;-65
2021/12/20 06:33:32;;;;;;;22.40;13.27;;;;;;;;;;6230865;28;20132;-65
2021/12/20 06:36:34;;;;;;;24.42;14.77;;;;;;;;;;6226703;28;20088;-65
2021/12/20 06:39:37;;;;;;;26.88;14.90;;;;;;;;;;6243587;28;20189;-65
2021/12/20 06:42:38;;;;;;;21.40;14.02;;;;;;;;;;6235900;28;20539;-65
2021/12/20 06:45:40;;;;;;;29.20;15.52;;;;;;;;;;6220851;28;20234;-65
2021/12/20 06:48:42;;;;;;;25.70;14.13;;;;;;;;;;6224826;28;20054;-65
2021/12/20 06:51:44;;;;;;;25.00;14.20;;;;;;;;;;6214582;28;20466;-65
2021/12/20 06:54:49;;;;;;;25.15;13.45;;;;;;;;;;6228227;28;20120;-65
2021/12/20 06:57:51;;;;;;;24.80;14.73;;;;;;;;;;6220757;28;20053;-66
2021/12/20 07:00:53;;;;;;;24.17;14.25;;;;;;;;;;6214517;28;20406;-66
2021/12/20 07:03:55;;;;;;;26.02;14.30;;;;;;;;;;6220312;28;20127;-65
2021/12/20 07:06:56;;;;;;;22.05;13.48;;;;;;;;;;6217234;28;20683;-65
2021/12/20 07:09:59;;;;;;;24.63;13.25;;;;;;;;;;6225949;28;20132;-65
2021/12/20 07:13:01;;;;;;;26.52;14.80;;;;;;;;;;6223820;28;20142;-65
2021/12/20 07:16:03;;;;;;;25.45;14.75;;;;;;;;;;6216602;28;20155;-66
2021/12/20 07:19:05;;;;;;;22.67;13.40;;;;;;;;;;6228169;28;20104;-65
2021/12/20 07:22:06;;;;;;;27.55;13.82;;;;;;;;;;6218444;28;20057;-65
2021/12/20 07:25:10;;;;;;;23.23;14.48;;;;;;;;;;6224314;28;20508;-66
2021/12/20 07:28:12;;;;;;;24.60;14.25;;;;;;;;;;6222915;28;20038;-66
2021/12/20 07:31:14;;;;;;;21.55;13.13;;;;;;;;;;6212942;28;20041;-65
2021/12/20 07:34:16;;;;;;;24.38;13.30;;;;;;;;;;6221896;28;20065;-66
2021/12/20 07:37:18;;;;;;;25.10;13.05;;;;;;;;;;6216081;28;20045;-66
2021/12/20 07:40:21;;;;;;;23.17;12.20;;;;;;;;;;6218689;28;20046;-66
2021/12/20 07:43:23;;;;;;;19.58;12.95;;;;;;;;;;6220574;28;20042;-66
2021/12/20 07:46:24;;;;;;;22.65;12.20;;;;;;;;;;6214355;28;20049;-66
2021/12/20 07:49:26;;;;;;;20.92;13.00;;;;;;;;;;6225152;28;20098;-66
2021/12/20 07:52:27;;;;;;;25.10;13.00;;;;;;;;;;6213803;28;20086;-67
2021/12/20 07:55:30;;;;;;;21.42;13.57;;;;;;;;;;6220437;28;20832;-66
2021/12/20 07:58:32;;;;;;;23.20;13.60;;;;;;;;;;6228973;28;20042;-66
2021/12/20 08:01:35;;;;;;;19.77;13.10;;;;;;;;;;6211736;28;20508;-66
2021/12/20 08:04:36;;;;;;;19.67;11.82;;;;;;;;;;6229839;28;20377;-66
2021/12/20 08:07:38;;;;;;;22.50;13.40;;;;;;;;;;6214012;28;20192;-66
2021/12/20 08:10:41;;;;;;;24.40;13.85;;;;;;;;;;6209533;28;20525;-66
2021/12/20 08:13:45;;;;;;;24.37;13.40;;;;;;;;;;6225634;28;20111;-66
2021/12/20 08:16:46;;;;;;;22.63;14.30;;;;;;;;;;6209675;28;20049;-66
2021/12/20 08:19:48;;;;;;;21.75;12.68;;;;;;;;;;6220833;28;20131;-66
2021/12/20 08:22:50;;;;;;;22.45;12.75;;;;;;;;;;6214983;28;20553;-66
2021/12/20 08:25:53;;;;;;;24.98;14.25;;;;;;;;;;6214822;28;20147;-65
2021/12/20 08:28:55;;;;;;;23.05;13.35;;;;;;;;;;6227755;28;20152;-66
2021/12/20 08:32:01;;;;;;;26.25;14.45;;;;;;;;;;6220355;28;20126;-66
2021/12/20 08:35:02;;;;;;;26.40;13.80;;;;;;;;;;6231408;28;20383;-66
2021/12/20 08:38:04;;;;;;;21.83;14.10;;;;;;;;;;6216335;28;20041;-66
2021/12/20 08:41:09;;;;;;;29.92;13.95;;;;;;;;;;6213375;28;20585;-66
2021/12/20 08:44:11;;;;;;;25.67;13.85;;;;;;;;;;6224252;28;20053;-66
2021/12/20 08:47:12;;;;;;;22.55;13.85;;;;;;;;;;6212314;28;20050;-66
2021/12/20 08:50:17;;;;;;;22.73;13.95;;;;;;;;;;6220124;28;21533;-67
2021/12/20 08:53:18;;;;;;;;;;;;;;;;;;6230735;28;20096;-66
2021/12/20 08:56:21;;;;;;;22.85;14.25;;;;;;;;;;6214437;28;19925;-65
2021/12/20 08:59:23;;;;;;;22.85;13.60;;;;;;;;;;6227838;28;20164;-66
2021/12/20 09:02:25;;;;;;;22.10;14.45;;;;;;;;;;6209747;28;20054;-67
2021/12/20 09:05:28;;;;;;;26.33;16.02;;;;;;;;;;6215440;28;20048;-66
2021/12/20 09:08:30;;;;;;;28.63;14.95;;;;;;;;;;6222445;28;20187;-66
2021/12/20 09:11:33;;;;;;;26.20;14.88;;;;;;;;;;6214742;28;20089;-66
2021/12/20 09:14:35;;;;;;;25.95;14.90;;;;;;;;;;6220900;28;20107;-66
2021/12/20 09:17:36;;;;;;;22.42;14.63;;;;;;;;;;6212649;28;20046;-66
2021/12/20 09:20:38;;;;;;;24.85;14.13;;;;;;;;;;6213123;28;20062;-66
2021/12/20 09:23:40;;;;;;;24.15;14.85;;;;;;;;;;6225117;28;20519;-66
2021/12/20 09:26:43;;;;;;;23.42;15.07;;;;;;;;;;6220526;28;20068;-67
2021/12/20 09:29:45;;;;;;;27.88;14.98;;;;;;;;;;6222736;28;20058;-66
2021/12/20 09:32:47;;;;;;;22.85;14.93;;;;;;;;;;6206631;28;20050;-67
2021/12/20 09:35:50;;;;;;;26.05;15.27;;;;;;;;;;6208640;28;20795;-66
2021/12/20 09:38:54;;;;;;;25.08;14.57;;;;;;;;;;6225006;28;20388;-67
2021/12/20 09:42:03;;;;;;;24.05;14.80;;;;;;;;;;6214602;28;20053;-66
2021/12/20 09:45:05;;;;;;;23.95;14.35;;;;;;;;;;6224324;28;20374;-67
2021/12/20 09:48:07;;;;;;;20.33;14.23;;;;;;;;;;6217055;28;20042;-66
2021/12/20 09:51:09;;;;;;;19.45;13.75;;;;;;;;;;6212797;28;20105;-66
2021/12/20 09:54:10;;;;;;;18.40;13.27;;;;;;;;;;6223192;28;20418;-66
2021/12/20 09:57:14;;;;;;;20.65;13.27;;;;;;;;;;6214815;28;20144;-67
2021/12/20 10:00:19;;;;;;;21.13;13.57;;;;;;;;;;6220753;28;20042;-66
2021/12/20 10:03:21;;;;;;;21.65;13.27;;;;;;;;;;6218035;28;20433;-66
2021/12/20 10:06:23;;;;;;;20.15;12.88;;;;;;;;;;6216657;28;20095;-67
2021/12/20 10:09:29;;;;;;;17.88;12.98;;;;;;;;;;6229127;28;20567;-67
2021/12/20 10:12:32;;;;;;;19.13;12.57;;;;;;;;;;6220893;28;20163;-66
2021/12/20 10:15:34;;;;;;;22.48;12.63;;;;;;;;;;6214294;28;20053;-67
2021/12/20 10:18:36;;;;;;;22.38;12.35;;;;;;;;;;6223485;28;20050;-66
2021/12/20 10:21:39;;;;;;;19.48;12.10;;;;;;;;;;6217746;28;20454;-67
2021/12/20 10:24:41;;;;;;;21.63;11.90;;;;;;;;;;6223868;28;20128;-67
2021/12/20 10:27:44;;;;;;;17.50;12.07;;;;;;;;;;6217813;28;20045;-66
2021/12/20 10:30:47;;;;;;;13.98;10.18;;;;;;;;;;6219645;28;20050;-66
2021/12/20 10:33:52;;;;;;;21.38;9.73;;;;;;;;;;6240175;28;20092;-66
2021/12/20 10:36:55;;;;;;;13.65;10.40;;;;;;;;;;6224267;28;20041;-66
2021/12/20 10:40:02;;;;;;;15.38;10.82;;;;;;;;;;6237372;28;20049;-66
2021/12/20 10:43:12;;;;;;;15.77;10.55;;;;;;;;;;6209727;28;20117;-67
2021/12/20 10:46:15;;;;;;;18.98;10.30;;;;;;;;;;6225809;28;20132;-67
2021/12/20 10:49:18;;;;;;;15.32;10.02;;;;;;;;;;6234971;28;20060;-67
2021/12/20 10:52:27;;;;;;;18.20;10.55;;;;;;;;;;6240690;28;20466;-67
2021/12/20 10:55:39;;;;;;;18.15;9.57;;;;;;;;;;6225726;28;20667;-66
2021/12/20 10:58:42;;;;;;;12.68;9.10;;;;;;;;;;6232215;28;20054;-67
2021/12/20 11:05:21;;;;;;;15.23;8.98;;;;;;;;;;6216616;28;20485;-66
2021/12/20 11:11:48;;;;;;;13.50;8.20;;;;;;;;;;6224211;28;20049;-66
2021/12/20 11:14:59;;;;;;;11.77;8.13;;;;;;;;;;6227160;28;20037;-66
2021/12/20 11:18:14;;;;;;;11.80;7.20;;;;;;;;;;6210820;28;20056;-66
2021/12/20 11:21:16;;;;;;;13.75;7.57;;;;;;;;;;6219940;28;20063;-67
2021/12/20 11:24:19;;;;;;;12.23;8.20;;;;;;;;;;6242679;28;20529;-66
2021/12/20 11:27:22;;;;;;;11.20;7.53;;;;;;;;;;6241230;28;20182;-66
2021/12/20 11:30:27;;;;;;;10.10;7.23;;;;;;;;;;6235202;28;20207;-67
2021/12/20 11:33:28;;;;;;;8.18;6.85;;;;;;;;;;6238544;28;20041;-67
2021/12/20 11:36:30;;;;;;;9.20;7.50;;;;;;;;;;6231999;28;20041;-67
2021/12/20 11:39:33;;;;;;;9.77;7.72;;;;;;;;;;6241874;28;20431;-67
2021/12/20 11:42:35;;;;;;;9.02;7.13;;;;;;;;;;6227628;28;20091;-67
2021/12/20 11:45:38;;;;;;;8.93;7.38;;;;;;;;;;6234072;28;20057;-66
2021/12/20 11:48:40;;;;;;;9.45;6.90;;;;;;;;;;6234229;28;20049;-67
2021/12/20 11:52:03;;;;;;;12.43;9.00;;;;;;;;;;6225560;28;20042;-67
2021/12/20 11:55:19;;;;;;;15.00;9.00;;;;;;;;;;6239283;28;20041;-67
2021/12/20 11:58:23;;;;;;;15.52;8.90;;;;;;;;;;6236507;28;20518;-67
2021/12/20 12:01:26;;;;;;;16.25;10.38;;;;;;;;;;6220871;28;20049;-67
2021/12/20 12:04:55;;;;;;;17.17;12.73;;;;;;;;;;6234785;28;21425;-67
2021/12/20 12:08:33;;;;;;;16.92;12.43;;;;;;;;;;6229444;28;20116;-66
2021/12/20 12:11:37;;;;;;;16.95;12.60;;;;;;;;;;6228682;28;20061;-67
2021/12/20 12:15:01;;;;;;;16.67;13.13;;;;;;;;;;6239105;28;20490;-67
2021/12/20 12:18:07;;;;;;;17.23;13.80;;;;;;;;;;6221360;28;20049;-66
2021/12/20 12:21:09;;;;;;;17.85;13.63;;;;;;;;;;6229118;28;20144;-66
2021/12/20 12:24:13;;;;;;;20.80;13.35;;;;;;;;;;6239835;28;20041;-66
2021/12/20 12:27:22;;;;;;;17.67;13.13;;;;;;;;;;6228792;28;20060;-67
2021/12/20 12:30:31;;;;;;;17.42;12.98;;;;;;;;;;6226545;28;20051;-66
2021/12/20 12:33:39;;;;;;;17.50;13.10;;;;;;;;;;6233947;28;20515;-66
2021/12/20 12:36:42;;;;;;;19.02;13.93;;;;;;;;;;6224667;28;20496;-66
2021/12/20 12:39:43;;;;;;;20.95;13.43;;;;;;;;;;6236559;28;20132;-66
2021/12/20 12:42:53;;;;;;;18.10;12.50;;;;;;;;;;6218788;28;20451;-66
2021/12/20 12:45:56;;;;;;;16.38;12.48;;;;;;;;;;6220111;28;20045;-66
2021/12/20 12:48:59;;;;;;;16.65;12.95;;;;;;;;;;6228581;28;20098;-66
2021/12/20 12:52:05;;;;;;;18.05;12.90;;;;;;;;;;6221675;28;20152;-66
2021/12/20 12:55:32;;;;;;;16.75;13.05;;;;;;;;;;6232486;28;20049;-66
2021/12/20 12:58:34;;;;;;;17.60;12.98;;;;;;;;;;6235933;28;20413;-67
2021/12/20 13:01:39;;;;;;;20.73;13.77;;;;;;;;;;6215000;28;20125;-66
2021/12/20 13:04:47;;;;;;;17.42;12.80;;;;;;;;;;6238418;28;20049;-66
2021/12/20 13:07:50;;;;;;;19.25;12.80;;;;;;;;;;6221789;28;20053;-66
2021/12/20 13:10:52;;;;;;;20.65;13.30;;;;;;;;;;6212415;28;20095;-66
2021/12/20 13:14:07;;;;;;;20.02;12.68;;;;;;;;;;6246816;28;20052;-66
2021/12/20 13:17:09;;;;;;;18.08;12.25;;;;;;;;;;6218028;28;20038;-66
2021/12/20 13:20:20;;;;;;;16.73;12.68;;;;;;;;;;6223240;28;20116;-66
2021/12/20 13:23:25;;;;;;;30.77;19.65;;;;;;;;;;6229999;28;20520;-64
2021/12/20 13:26:31;;;;;;;22.92;15.82;;;;;;;;;;6227789;28;20099;-64
2021/12/20 13:29:33;;;;;;;19.80;14.00;;;;;;;;;;6250047;28;20183;-65
2021/12/20 13:32:34;;;;;;;21.38;14.40;;;;;;;;;;6226742;28;20130;-65
2021/12/20 13:35:39;;;;;;;18.05;12.95;;;;;;;;;;6218656;28;20047;-65
2021/12/20 13:38:41;;;;;;;18.85;14.38;;;;;;;;;;6227809;28;20061;-66
2021/12/20 13:41:43;;;;;;;20.20;14.10;;;;;;;;;;6221687;28;20041;-65
2021/12/20 13:44:44;;;;;;;24.25;14.63;;;;;;;;;;6232947;28;20057;-65
2021/12/20 13:47:47;;;;;;;20.05;14.30;;;;;;;;;;6211115;28;20065;-65
2021/12/20 13:50:54;;;;;;;21.83;15.05;;;;;;;;;;6218740;28;20422;-65
2021/12/20 13:53:56;;;;;;;19.40;14.30;;;;;;;;;;6232324;28;20061;-66
2021/12/20 13:57:02;;;;;;;20.92;14.43;;;;;;;;;;6223344;28;20046;-65
2021/12/20 14:00:06;;;;;;;21.33;14.80;;;;;;;;;;6232123;28;20403;-65
2021/12/20 14:03:08;;;;;;;19.83;14.65;;;;;;;;;;6214009;28;20405;-66
2021/12/20 14:06:42;;;;;;;19.42;14.27;;;;;;;;;;6221405;28;20163;-65
2021/12/20 14:10:06;;;;;;;22.53;15.17;;;;;;;;;;6235661;28;20051;-65
2021/12/20 14:13:09;;;;;;;24.45;15.68;;;;;;;;;;6230744;28;20046;-65
2021/12/20 14:16:12;;;;;;;22.55;14.95;;;;;;;;;;6221419;28;20045;-65
2021/12/20 14:19:14;;;;;;;24.50;15.90;;;;;;;;;;6232183;28;20054;-65
2021/12/20 14:22:17;;;;;;;28.85;15.50;;;;;;;;;;6225351;28;20046;-65
2021/12/20 14:25:19;;;;;;;27.13;15.10;;;;;;;;;;6223502;28;20062;-65
2021/12/20 14:28:26;;;;;;;24.17;15.38;;;;;;;;;;6230822;28;20121;-65
2021/12/20 14:31:35;;;;;;;24.13;15.18;;;;;;;;;;6210957;28;20034;-65
2021/12/20 14:34:38;;;;;;;25.63;14.45;;;;;;;;;;6230537;28;20180;-65
2021/12/20 14:37:41;;;;;;;26.15;14.57;;;;;;;;;;6218625;28;20045;-65
2021/12/20 14:40:49;;;;;;;27.30;15.00;;;;;;;;;;6220036;28;20100;-65
2021/12/20 14:43:51;;;;;;;28.42;15.23;;;;;;;;;;6233468;28;20049;-65
2021/12/20 14:46:59;;;;;;;26.95;15.45;;;;;;;;;;6225609;28;20118;-64
2021/12/20 14:50:05;;;;;;;28.45;15.93;;;;;;;;;;6237649;28;20061;-65
2021/12/20 14:53:15;;;;;;;28.15;15.15;;;;;;;;;;6226580;28;20045;-65
2021/12/20 14:56:17;;;;;;;29.00;14.20;;;;;;;;;;6224192;28;20120;-65
2021/12/20 14:59:19;;;;;;;32.78;16.35;;;;;;;;;;6239528;28;20045;-65
2021/12/20 15:02:27;;;;;;;33.72;16.95;;;;;;;;;;6225522;28;20049;-65
2021/12/20 15:05:28;;;;;;;36.63;16.77;;;;;;;;;;6230038;28;20442;-65
2021/12/20 15:08:31;;;;;;;64.55;31.25;;;;;;;;;;6248565;28;20179;-65
2021/12/20 15:11:33;;;;;;;42.75;18.67;;;;;;;;;;6238037;28;20139;-64
2021/12/20 15:14:34;;;;;;;38.83;18.27;;;;;;;;;;6258405;28;20124;-66
2021/12/20 15:17:36;;;;;;;39.30;17.75;;;;;;;;;;6224813;28;20458;-65
2021/12/20 15:20:38;;;;;;;38.28;17.67;;;;;;;;;;6220018;28;20056;-65
2021/12/20 15:23:41;;;;;;;36.72;16.98;;;;;;;;;;6236324;28;20184;-65
2021/12/20 15:26:42;;;;;;;38.67;17.25;;;;;;;;;;6231703;28;20057;-66
2021/12/20 15:29:44;;;;;;;42.92;19.38;;;;;;;;;;6241263;28;20050;-65
2021/12/20 15:32:46;;;;;;;41.67;17.88;;;;;;;;;;6222904;28;20045;-66
2021/12/20 15:35:47;;;;;;;41.05;18.35;;;;;;;;;;6220123;28;20122;-65
2021/12/20 15:38:50;;;;;;;44.88;19.05;;;;;;;;;;6238125;28;20203;-66
2021/12/20 15:41:58;;;;;;;45.03;18.55;;;;;;;;;;6228206;28;20132;-65
2021/12/20 15:45:01;;;;;;;42.95;18.85;;;;;;;;;;6236920;28;20097;-65
2021/12/20 15:48:03;;;;;;;46.10;20.13;;;;;;;;;;6218026;28;20076;-65
2021/12/20 15:51:04;;;;;;;43.65;19.17;;;;;;;;;;6221286;28;20094;-66
2021/12/20 15:54:08;;;;;;;40.17;19.00;;;;;;;;;;6237129;28;20048;-65
2021/12/20 15:57:09;;;;;;;47.10;20.52;;;;;;;;;;6230263;28;20154;-65
2021/12/20 16:00:12;;;;;;;49.15;20.65;;;;;;;;;;6233984;28;20228;-65
2021/12/20 16:03:14;;;;;;;44.67;19.90;;;;;;;;;;6231687;28;20150;-65
2021/12/20 16:06:16;;;;;;;47.55;20.23;;;;;;;;;;6233171;28;20080;-65
2021/12/20 16:09:19;;;;;;;44.42;20.70;;;;;;;;;;6233479;28;20053;-66
2021/12/20 16:12:20;;;;;;;47.45;20.20;;;;;;;;;;6239450;28;20041;-66
2021/12/20 16:15:22;;;;;;;45.42;21.30;;;;;;;;;;6223120;28;20046;-65
2021/12/20 16:18:24;;;;;;;40.00;19.45;;;;;;;;;;6229648;28;20093;-65
2021/12/20 16:21:25;;;;;;;43.70;20.77;;;;;;;;;;6222771;28;20050;-65
2021/12/20 16:24:28;;;;;;;46.45;20.00;;;;;;;;;;6236957;28;20077;-65
2021/12/20 16:27:32;;;;;;;49.50;20.92;;;;;;;;;;6229150;28;20046;-65
2021/12/20 16:30:34;;;;;;;48.53;20.97;;;;;;;;;;6224401;28;20426;-65
2021/12/20 16:33:38;;;;;;;41.13;21.08;;;;;;;;;;6234758;28;20593;-65
2021/12/20 16:36:39;;;;;;;50.67;22.20;;;;;;;;;;6227352;28;20689;-66
2021/12/20 16:39:42;;;;;;;45.47;21.00;;;;;;;;;;6242927;28;20056;-65
2021/12/20 16:42:44;;;;;;;47.10;20.30;;;;;;;;;;6240695;28;20534;-66
2021/12/20 16:45:53;;;;;;;47.20;21.58;;;;;;;;;;6229014;28;20045;-65
2021/12/20 16:48:58;;;;;;;47.38;21.70;;;;;;;;;;6245096;28;20123;-66
2021/12/20 16:51:59;;;;;;;45.70;21.25;;;;;;;;;;6248266;28;20483;-65
2021/12/20 16:55:03;;;;;;;48.10;21.58;;;;;;;;;;6240526;28;20045;-65
2021/12/20 16:58:05;;;;;;;48.30;23.00;;;;;;;;;;6232056;28;20041;-65
2021/12/20 17:01:06;;;;;;;42.28;21.90;;;;;;;;;;6211507;28;20042;-66
2021/12/20 17:04:39;;;;;;;46.83;22.90;;;;;;;;;;6224750;28;20421;-65
2021/12/20 17:07:41;;;;;;;44.65;22.05;;;;;;;;;;6215601;28;20061;-66
2021/12/20 17:10:44;;;;;;;44.88;21.58;;;;;;;;;;6229952;28;20098;-65
2021/12/20 17:13:46;;;;;;;50.77;21.80;;;;;;;;;;6217320;28;20475;-65
2021/12/20 17:16:48;;;;;;;44.83;21.23;;;;;;;;;;6205874;28;20115;-65
2021/12/20 17:19:49;;;;;;;44.00;20.92;;;;;;;;;;6233949;28;20049;-65
2021/12/20 17:22:51;;;;;;;46.80;21.90;;;;;;;;;;6228515;28;20141;-66
2021/12/20 17:25:54;;;;;;;43.97;22.92;;;;;;;;;;6234156;28;20049;-66
2021/12/20 17:28:55;;;;;;;49.67;22.63;;;;;;;;;;6244857;28;20055;-66
2021/12/20 17:31:58;;;;;;;45.55;22.77;;;;;;;;;;6226732;28;20146;-66
2021/12/20 17:34:59;;;;;;;46.30;21.45;;;;;;;;;;6242745;28;20240;-65
2021/12/20 17:38:01;;;;;;;46.88;21.80;;;;;;;;;;6228154;28;20046;-65
2021/12/20 17:41:05;;;;;;;50.92;23.58;;;;;;;;;;6229702;28;20094;-66
2021/12/20 17:44:06;;;;;;;46.63;21.92;;;;;;;;;;6240321;28;20516;-66
2021/12/20 17:47:08;;;;;;;43.25;21.70;;;;;;;;;;6221482;28;20055;-66
2021/12/20 17:50:12;;;;;;;45.72;22.45;;;;;;;;;;6232831;28;20057;-65
2021/12/20 17:53:14;;;;;;;;;;;;;;;;;;6227089;28;20041;-66
2021/12/20 17:56:17;;;;;;;49.05;21.83;;;;;;;;;;6229245;28;20072;-66
2021/12/20 17:59:20;;;;;;;45.97;22.23;;;;;;;;;;6229343;28;20445;-66
2021/12/20 18:02:23;;;;;;;45.58;22.88;;;;;;;;;;6210275;28;20058;-65
2021/12/20 18:05:27;;;;;;;52.42;26.25;;;;;;;;;;6228725;28;20046;-65